sensor_id;sensor_type;location;lat;lon;timestamp;P1;durP1;ratioP1;P2;durP2;ratioP2
53040;SDS011;39326;42.650;23.248;2023-08-12T00:01:25;4.13;;;3.73;;
53040;SDS011;39326;42.650;23.248;2023-08-12T00:03:51;5.97;;;3.97;;
53040;SDS011;39326;42.650;23.248;2023-08-12T00:06:17;3.97;;;3.67;;
53040;SDS011;39326;42.650;23.248;2023-08-12T00:08:42;3.97;;;3.67;;
53040;SDS011;39326;42.650;23.248;2023-08-12T00:11:08;3.90;;;3.50;;
53040;SDS011;39326;42.650;23.248;2023-08-12T00:13:34;3.50;;;3.22;;
53040;SDS011;39326;42.650;23.248;2023-08-12T00:16:00;3.77;;;3.57;;
53040;SDS011;39326;42.650;23.248;2023-08-12T00:18:26;4.28;;;3.38;;
53040;SDS011;39326;42.650;23.248;2023-08-12T00:20:52;4.23;;;3.60;;
53040;SDS011;39326;42.650;23.248;2023-08-12T00:23:18;4.53;;;4.13;;
53040;SDS011;39326;42.650;23.248;2023-08-12T00:25:44;3.83;;;3.30;;
53040;SDS011;39326;42.650;23.248;2023-08-12T00:28:10;3.80;;;3.50;;
53040;SDS011;39326;42.650;23.248;2023-08-12T00:30:37;5.47;;;3.40;;
53040;SDS011;39326;42.650;23.248;2023-08-12T00:33:03;3.80;;;3.50;;
53040;SDS011;39326;42.650;23.248;2023-08-12T00:35:29;3.80;;;3.60;;
53040;SDS011;39326;42.650;23.248;2023-08-12T00:37:55;3.93;;;3.63;;
53040;SDS011;39326;42.650;23.248;2023-08-12T00:40:21;4.00;;;3.70;;
53040;SDS011;39326;42.650;23.248;2023-08-12T00:42:47;3.77;;;3.50;;
53040;SDS011;39326;42.650;23.248;2023-08-12T00:45:12;4.10;;;3.70;;
53040;SDS011;39326;42.650;23.248;2023-08-12T00:47:38;3.63;;;3.33;;
53040;SDS011;39326;42.650;23.248;2023-08-12T00:50:06;3.93;;;3.63;;
53040;SDS011;39326;42.650;23.248;2023-08-12T00:52:34;3.87;;;3.57;;
53040;SDS011;39326;42.650;23.248;2023-08-12T00:55:00;3.90;;;3.60;;
53040;SDS011;39326;42.650;23.248;2023-08-12T00:57:26;4.40;;;3.30;;
53040;SDS011;39326;42.650;23.248;2023-08-12T00:59:52;3.60;;;3.40;;
53040;SDS011;39326;42.650;23.248;2023-08-12T01:02:20;3.87;;;3.57;;
53040;SDS011;39326;42.650;23.248;2023-08-12T01:04:46;3.93;;;3.63;;
53040;SDS011;39326;42.650;23.248;2023-08-12T01:07:12;3.47;;;3.17;;
53040;SDS011;39326;42.650;23.248;2023-08-12T01:09:38;3.80;;;3.50;;
53040;SDS011;39326;42.650;23.248;2023-08-12T01:12:15;4.00;;;3.70;;
53040;SDS011;39326;42.650;23.248;2023-08-12T01:15:11;3.70;;;3.40;;
53040;SDS011;39326;42.650;23.248;2023-08-12T01:17:43;3.87;;;3.57;;
53040;SDS011;39326;42.650;23.248;2023-08-12T01:20:10;3.90;;;3.53;;
53040;SDS011;39326;42.650;23.248;2023-08-12T01:22:40;3.80;;;3.50;;
53040;SDS011;39326;42.650;23.248;2023-08-12T01:25:07;3.80;;;3.50;;
53040;SDS011;39326;42.650;23.248;2023-08-12T01:27:34;3.70;;;3.40;;
53040;SDS011;39326;42.650;23.248;2023-08-12T01:30:01;3.43;;;3.03;;
53040;SDS011;39326;42.650;23.248;2023-08-12T01:32:48;3.70;;;3.40;;
53040;SDS011;39326;42.650;23.248;2023-08-12T01:37:48;3.70;;;3.40;;
53040;SDS011;39326;42.650;23.248;2023-08-12T01:40:16;3.17;;;2.97;;
53040;SDS011;39326;42.650;23.248;2023-08-12T01:42:45;3.43;;;3.17;;
53040;SDS011;39326;42.650;23.248;2023-08-12T01:45:11;3.87;;;3.47;;
53040;SDS011;39326;42.650;23.248;2023-08-12T01:47:37;3.40;;;3.20;;
53040;SDS011;39326;42.650;23.248;2023-08-12T01:50:03;3.87;;;3.57;;
53040;SDS011;39326;42.650;23.248;2023-08-12T01:52:29;3.50;;;3.20;;
53040;SDS011;39326;42.650;23.248;2023-08-12T01:54:55;3.53;;;3.10;;
53040;SDS011;39326;42.650;23.248;2023-08-12T01:57:21;5.03;;;3.20;;
53040;SDS011;39326;42.650;23.248;2023-08-12T01:59:47;3.87;;;3.00;;
53040;SDS011;39326;42.650;23.248;2023-08-12T02:02:13;3.87;;;3.13;;
53040;SDS011;39326;42.650;23.248;2023-08-12T02:04:39;3.40;;;3.10;;
53040;SDS011;39326;42.650;23.248;2023-08-12T02:07:07;3.53;;;3.22;;
53040;SDS011;39326;42.650;23.248;2023-08-12T02:09:33;3.33;;;3.03;;
53040;SDS011;39326;42.650;23.248;2023-08-12T02:11:59;3.47;;;3.20;;
53040;SDS011;39326;42.650;23.248;2023-08-12T02:14:25;4.40;;;2.87;;
53040;SDS011;39326;42.650;23.248;2023-08-12T02:16:50;4.00;;;3.57;;
53040;SDS011;39326;42.650;23.248;2023-08-12T02:19:16;3.17;;;2.97;;
53040;SDS011;39326;42.650;23.248;2023-08-12T02:21:42;3.70;;;3.40;;
53040;SDS011;39326;42.650;23.248;2023-08-12T02:24:08;2.90;;;2.70;;
53040;SDS011;39326;42.650;23.248;2023-08-12T02:26:34;3.67;;;2.70;;
53040;SDS011;39326;42.650;23.248;2023-08-12T02:29:00;3.60;;;3.30;;
53040;SDS011;39326;42.650;23.248;2023-08-12T02:31:26;2.90;;;2.57;;
53040;SDS011;39326;42.650;23.248;2023-08-12T02:33:52;3.10;;;2.80;;
53040;SDS011;39326;42.650;23.248;2023-08-12T02:36:17;3.10;;;2.90;;
53040;SDS011;39326;42.650;23.248;2023-08-12T02:38:43;2.77;;;2.57;;
53040;SDS011;39326;42.650;23.248;2023-08-12T02:41:09;2.88;;;2.67;;
53040;SDS011;39326;42.650;23.248;2023-08-12T02:43:35;3.00;;;2.80;;
53040;SDS011;39326;42.650;23.248;2023-08-12T02:46:00;3.33;;;3.03;;
53040;SDS011;39326;42.650;23.248;2023-08-12T02:48:26;3.00;;;2.70;;
53040;SDS011;39326;42.650;23.248;2023-08-12T02:50:52;2.63;;;2.42;;
53040;SDS011;39326;42.650;23.248;2023-08-12T02:53:18;3.13;;;2.93;;
53040;SDS011;39326;42.650;23.248;2023-08-12T02:55:47;2.83;;;2.63;;
53040;SDS011;39326;42.650;23.248;2023-08-12T02:58:12;3.83;;;2.97;;
53040;SDS011;39326;42.650;23.248;2023-08-12T03:00:41;3.10;;;2.80;;
53040;SDS011;39326;42.650;23.248;2023-08-12T03:03:08;3.37;;;2.70;;
53040;SDS011;39326;42.650;23.248;2023-08-12T03:05:34;3.00;;;2.80;;
53040;SDS011;39326;42.650;23.248;2023-08-12T03:08:01;2.73;;;2.53;;
53040;SDS011;39326;42.650;23.248;2023-08-12T03:10:28;3.17;;;2.77;;
53040;SDS011;39326;42.650;23.248;2023-08-12T03:12:54;3.00;;;2.80;;
53040;SDS011;39326;42.650;23.248;2023-08-12T03:15:21;3.10;;;2.87;;
53040;SDS011;39326;42.650;23.248;2023-08-12T03:17:47;2.70;;;2.50;;
53040;SDS011;39326;42.650;23.248;2023-08-12T03:20:13;3.13;;;2.73;;
53040;SDS011;39326;42.650;23.248;2023-08-12T03:22:39;2.97;;;2.67;;
53040;SDS011;39326;42.650;23.248;2023-08-12T03:25:05;2.90;;;2.70;;
53040;SDS011;39326;42.650;23.248;2023-08-12T03:27:31;3.30;;;2.97;;
53040;SDS011;39326;42.650;23.248;2023-08-12T03:29:57;3.10;;;2.90;;
53040;SDS011;39326;42.650;23.248;2023-08-12T03:32:23;2.70;;;2.50;;
53040;SDS011;39326;42.650;23.248;2023-08-12T03:34:50;4.83;;;3.17;;
53040;SDS011;39326;42.650;23.248;2023-08-12T03:37:16;3.00;;;2.80;;
53040;SDS011;39326;42.650;23.248;2023-08-12T03:39:41;3.17;;;2.97;;
53040;SDS011;39326;42.650;23.248;2023-08-12T03:42:07;3.20;;;2.83;;
53040;SDS011;39326;42.650;23.248;2023-08-12T03:44:33;4.20;;;2.90;;
53040;SDS011;39326;42.650;23.248;2023-08-12T03:46:59;3.10;;;2.90;;
53040;SDS011;39326;42.650;23.248;2023-08-12T03:49:25;3.23;;;2.93;;
53040;SDS011;39326;42.650;23.248;2023-08-12T03:51:51;3.03;;;2.73;;
53040;SDS011;39326;42.650;23.248;2023-08-12T03:54:17;2.70;;;2.50;;
53040;SDS011;39326;42.650;23.248;2023-08-12T03:56:43;3.70;;;2.90;;
53040;SDS011;39326;42.650;23.248;2023-08-12T03:59:09;3.17;;;2.83;;
53040;SDS011;39326;42.650;23.248;2023-08-12T04:01:36;3.53;;;2.73;;
53040;SDS011;39326;42.650;23.248;2023-08-12T04:04:02;4.80;;;3.33;;
53040;SDS011;39326;42.650;23.248;2023-08-12T04:06:28;3.20;;;2.90;;
53040;SDS011;39326;42.650;23.248;2023-08-12T04:08:54;2.90;;;2.70;;
53040;SDS011;39326;42.650;23.248;2023-08-12T04:11:20;2.97;;;2.60;;
53040;SDS011;39326;42.650;23.248;2023-08-12T04:13:46;3.00;;;2.80;;
53040;SDS011;39326;42.650;23.248;2023-08-12T04:16:12;3.17;;;2.90;;
53040;SDS011;39326;42.650;23.248;2023-08-12T04:18:38;2.97;;;2.73;;
53040;SDS011;39326;42.650;23.248;2023-08-12T04:21:04;3.10;;;2.73;;
53040;SDS011;39326;42.650;23.248;2023-08-12T04:23:30;4.13;;;2.97;;
53040;SDS011;39326;42.650;23.248;2023-08-12T04:25:56;2.83;;;2.63;;
53040;SDS011;39326;42.650;23.248;2023-08-12T04:28:22;3.10;;;2.90;;
53040;SDS011;39326;42.650;23.248;2023-08-12T04:30:48;2.80;;;2.43;;
53040;SDS011;39326;42.650;23.248;2023-08-12T04:33:17;2.60;;;2.40;;
53040;SDS011;39326;42.650;23.248;2023-08-12T04:35:45;2.73;;;2.40;;
53040;SDS011;39326;42.650;23.248;2023-08-12T04:38:11;3.20;;;2.70;;
53040;SDS011;39326;42.650;23.248;2023-08-12T04:40:39;3.33;;;2.67;;
53040;SDS011;39326;42.650;23.248;2023-08-12T04:43:07;2.80;;;2.60;;
53040;SDS011;39326;42.650;23.248;2023-08-12T04:45:33;3.20;;;2.40;;
53040;SDS011;39326;42.650;23.248;2023-08-12T04:47:59;2.30;;;2.10;;
53040;SDS011;39326;42.650;23.248;2023-08-12T04:50:25;2.38;;;2.25;;
53040;SDS011;39326;42.650;23.248;2023-08-12T04:52:54;3.20;;;2.50;;
53040;SDS011;39326;42.650;23.248;2023-08-12T04:55:20;3.50;;;2.50;;
53040;SDS011;39326;42.650;23.248;2023-08-12T04:57:46;3.03;;;2.73;;
53040;SDS011;39326;42.650;23.248;2023-08-12T05:00:11;2.70;;;2.50;;
53040;SDS011;39326;42.650;23.248;2023-08-12T05:02:37;2.50;;;2.30;;
53040;SDS011;39326;42.650;23.248;2023-08-12T05:05:03;2.40;;;2.20;;
53040;SDS011;39326;42.650;23.248;2023-08-12T05:07:30;2.38;;;2.28;;
53040;SDS011;39326;42.650;23.248;2023-08-12T05:09:56;2.53;;;2.30;;
53040;SDS011;39326;42.650;23.248;2023-08-12T05:12:22;2.80;;;2.10;;
53040;SDS011;39326;42.650;23.248;2023-08-12T05:14:47;2.37;;;2.10;;
53040;SDS011;39326;42.650;23.248;2023-08-12T05:17:13;3.27;;;2.33;;
53040;SDS011;39326;42.650;23.248;2023-08-12T05:19:39;2.73;;;2.20;;
53040;SDS011;39326;42.650;23.248;2023-08-12T05:22:04;2.37;;;2.23;;
53040;SDS011;39326;42.650;23.248;2023-08-12T05:24:30;2.60;;;2.40;;
53040;SDS011;39326;42.650;23.248;2023-08-12T05:26:56;2.37;;;2.17;;
53040;SDS011;39326;42.650;23.248;2023-08-12T05:29:22;2.50;;;2.30;;
53040;SDS011;39326;42.650;23.248;2023-08-12T05:31:48;2.10;;;2.00;;
53040;SDS011;39326;42.650;23.248;2023-08-12T05:34:13;2.27;;;2.17;;
53040;SDS011;39326;42.650;23.248;2023-08-12T05:36:38;4.95;;;2.40;;
53040;SDS011;39326;42.650;23.248;2023-08-12T05:39:04;2.70;;;2.50;;
53040;SDS011;39326;42.650;23.248;2023-08-12T05:41:30;2.63;;;2.43;;
53040;SDS011;39326;42.650;23.248;2023-08-12T05:43:55;3.37;;;2.77;;
53040;SDS011;39326;42.650;23.248;2023-08-12T05:46:21;2.87;;;2.47;;
53040;SDS011;39326;42.650;23.248;2023-08-12T05:48:46;2.50;;;2.30;;
53040;SDS011;39326;42.650;23.248;2023-08-12T05:51:12;2.60;;;2.40;;
53040;SDS011;39326;42.650;23.248;2023-08-12T05:53:38;2.70;;;2.50;;
53040;SDS011;39326;42.650;23.248;2023-08-12T05:56:04;3.00;;;2.80;;
53040;SDS011;39326;42.650;23.248;2023-08-12T05:58:29;2.55;;;2.35;;
53040;SDS011;39326;42.650;23.248;2023-08-12T06:00:55;3.00;;;2.40;;
53040;SDS011;39326;42.650;23.248;2023-08-12T06:03:20;3.13;;;2.77;;
53040;SDS011;39326;42.650;23.248;2023-08-12T06:05:46;2.67;;;2.38;;
53040;SDS011;39326;42.650;23.248;2023-08-12T06:08:12;4.28;;;2.30;;
53040;SDS011;39326;42.650;23.248;2023-08-12T06:10:38;2.73;;;2.47;;
53040;SDS011;39326;42.650;23.248;2023-08-12T06:13:04;2.78;;;2.55;;
53040;SDS011;39326;42.650;23.248;2023-08-12T06:15:30;2.47;;;2.27;;
53040;SDS011;39326;42.650;23.248;2023-08-12T06:17:56;2.47;;;2.27;;
53040;SDS011;39326;42.650;23.248;2023-08-12T06:20:22;2.60;;;2.40;;
53040;SDS011;39326;42.650;23.248;2023-08-12T06:22:50;3.70;;;2.70;;
53040;SDS011;39326;42.650;23.248;2023-08-12T06:25:18;2.97;;;2.78;;
53040;SDS011;39326;42.650;23.248;2023-08-12T06:27:44;2.63;;;2.42;;
53040;SDS011;39326;42.650;23.248;2023-08-12T06:30:10;2.22;;;1.90;;
53040;SDS011;39326;42.650;23.248;2023-08-12T06:32:36;2.63;;;2.30;;
53040;SDS011;39326;42.650;23.248;2023-08-12T06:35:02;2.88;;;2.25;;
53040;SDS011;39326;42.650;23.248;2023-08-12T06:37:28;2.40;;;2.20;;
53040;SDS011;39326;42.650;23.248;2023-08-12T06:39:54;2.95;;;2.70;;
53040;SDS011;39326;42.650;23.248;2023-08-12T06:42:20;2.47;;;2.28;;
53040;SDS011;39326;42.650;23.248;2023-08-12T06:44:49;2.97;;;2.70;;
53040;SDS011;39326;42.650;23.248;2023-08-12T06:47:23;2.28;;;2.17;;
53040;SDS011;39326;42.650;23.248;2023-08-12T06:49:49;2.60;;;2.40;;
53040;SDS011;39326;42.650;23.248;2023-08-12T06:52:15;2.88;;;2.53;;
53040;SDS011;39326;42.650;23.248;2023-08-12T06:54:41;3.60;;;2.78;;
53040;SDS011;39326;42.650;23.248;2023-08-12T06:57:06;2.75;;;2.55;;
53040;SDS011;39326;42.650;23.248;2023-08-12T06:59:32;3.60;;;2.35;;
53040;SDS011;39326;42.650;23.248;2023-08-12T07:01:57;2.63;;;2.38;;
53040;SDS011;39326;42.650;23.248;2023-08-12T07:04:23;3.35;;;2.60;;
53040;SDS011;39326;42.650;23.248;2023-08-12T07:06:49;3.15;;;2.50;;
53040;SDS011;39326;42.650;23.248;2023-08-12T07:09:16;2.75;;;2.15;;
53040;SDS011;39326;42.650;23.248;2023-08-12T07:11:42;2.75;;;2.55;;
53040;SDS011;39326;42.650;23.248;2023-08-12T07:14:07;3.90;;;2.38;;
53040;SDS011;39326;42.650;23.248;2023-08-12T07:16:33;2.80;;;2.60;;
53040;SDS011;39326;42.650;23.248;2023-08-12T07:18:58;3.00;;;2.70;;
53040;SDS011;39326;42.650;23.248;2023-08-12T07:21:24;3.17;;;2.88;;
53040;SDS011;39326;42.650;23.248;2023-08-12T07:23:50;3.80;;;2.92;;
53040;SDS011;39326;42.650;23.248;2023-08-12T07:26:16;3.90;;;2.55;;
53040;SDS011;39326;42.650;23.248;2023-08-12T07:28:41;3.38;;;2.83;;
53040;SDS011;39326;42.650;23.248;2023-08-12T07:31:07;2.80;;;2.60;;
53040;SDS011;39326;42.650;23.248;2023-08-12T07:33:32;3.58;;;2.80;;
53040;SDS011;39326;42.650;23.248;2023-08-12T07:35:58;2.80;;;2.60;;
53040;SDS011;39326;42.650;23.248;2023-08-12T07:38:24;3.17;;;2.50;;
53040;SDS011;39326;42.650;23.248;2023-08-12T07:40:50;3.20;;;2.90;;
53040;SDS011;39326;42.650;23.248;2023-08-12T07:43:16;3.97;;;2.50;;
53040;SDS011;39326;42.650;23.248;2023-08-12T07:45:41;3.88;;;2.78;;
53040;SDS011;39326;42.650;23.248;2023-08-12T07:48:07;5.03;;;2.67;;
53040;SDS011;39326;42.650;23.248;2023-08-12T07:50:32;3.75;;;2.70;;
53040;SDS011;39326;42.650;23.248;2023-08-12T07:52:58;4.18;;;2.72;;
53040;SDS011;39326;42.650;23.248;2023-08-12T07:55:23;3.78;;;2.70;;
53040;SDS011;39326;42.650;23.248;2023-08-12T07:57:49;3.47;;;2.97;;
53040;SDS011;39326;42.650;23.248;2023-08-12T08:00:15;2.60;;;2.40;;
53040;SDS011;39326;42.650;23.248;2023-08-12T08:02:40;5.20;;;2.80;;
53040;SDS011;39326;42.650;23.248;2023-08-12T08:05:06;3.05;;;2.75;;
53040;SDS011;39326;42.650;23.248;2023-08-12T08:07:32;3.17;;;2.65;;
53040;SDS011;39326;42.650;23.248;2023-08-12T08:09:58;3.00;;;2.72;;
53040;SDS011;39326;42.650;23.248;2023-08-12T08:12:23;3.38;;;2.78;;
53040;SDS011;39326;42.650;23.248;2023-08-12T08:14:50;3.42;;;3.10;;
53040;SDS011;39326;42.650;23.248;2023-08-12T08:17:15;3.58;;;2.97;;
53040;SDS011;39326;42.650;23.248;2023-08-12T08:19:41;3.88;;;3.20;;
53040;SDS011;39326;42.650;23.248;2023-08-12T08:22:07;4.50;;;3.47;;
53040;SDS011;39326;42.650;23.248;2023-08-12T08:24:32;3.03;;;2.80;;
53040;SDS011;39326;42.650;23.248;2023-08-12T08:26:58;3.58;;;3.28;;
53040;SDS011;39326;42.650;23.248;2023-08-12T08:29:24;3.30;;;2.92;;
53040;SDS011;39326;42.650;23.248;2023-08-12T08:31:49;4.45;;;2.80;;
53040;SDS011;39326;42.650;23.248;2023-08-12T08:34:15;3.50;;;3.20;;
53040;SDS011;39326;42.650;23.248;2023-08-12T08:36:41;4.05;;;3.00;;
53040;SDS011;39326;42.650;23.248;2023-08-12T08:39:08;3.33;;;3.00;;
53040;SDS011;39326;42.650;23.248;2023-08-12T08:41:35;3.55;;;2.80;;
53040;SDS011;39326;42.650;23.248;2023-08-12T08:44:03;3.65;;;3.00;;
53040;SDS011;39326;42.650;23.248;2023-08-12T08:46:32;2.78;;;2.58;;
53040;SDS011;39326;42.650;23.248;2023-08-12T08:48:58;3.70;;;2.90;;
53040;SDS011;39326;42.650;23.248;2023-08-12T08:51:25;3.50;;;2.55;;
53040;SDS011;39326;42.650;23.248;2023-08-12T08:53:53;3.17;;;2.88;;
53040;SDS011;39326;42.650;23.248;2023-08-12T08:56:20;3.05;;;2.83;;
53040;SDS011;39326;42.650;23.248;2023-08-12T08:58:47;3.13;;;2.83;;
53040;SDS011;39326;42.650;23.248;2023-08-12T09:01:12;3.28;;;3.08;;
53040;SDS011;39326;42.650;23.248;2023-08-12T09:03:39;5.30;;;3.45;;
53040;SDS011;39326;42.650;23.248;2023-08-12T09:06:05;5.15;;;3.13;;
53040;SDS011;39326;42.650;23.248;2023-08-12T09:08:31;4.10;;;3.08;;
53040;SDS011;39326;42.650;23.248;2023-08-12T09:10:59;3.00;;;2.45;;
53040;SDS011;39326;42.650;23.248;2023-08-12T09:13:27;2.97;;;2.60;;
53040;SDS011;39326;42.650;23.248;2023-08-12T09:15:53;3.10;;;2.72;;
53040;SDS011;39326;42.650;23.248;2023-08-12T09:18:19;3.13;;;2.92;;
53040;SDS011;39326;42.650;23.248;2023-08-12T09:20:49;3.20;;;2.75;;
53040;SDS011;39326;42.650;23.248;2023-08-12T09:23:18;3.88;;;3.20;;
53040;SDS011;39326;42.650;23.248;2023-08-12T09:25:44;4.28;;;3.10;;
53040;SDS011;39326;42.650;23.248;2023-08-12T09:28:10;3.97;;;3.13;;
53040;SDS011;39326;42.650;23.248;2023-08-12T09:30:36;4.70;;;2.85;;
53040;SDS011;39326;42.650;23.248;2023-08-12T09:33:03;3.78;;;3.03;;
53040;SDS011;39326;42.650;23.248;2023-08-12T09:35:41;3.20;;;2.90;;
53040;SDS011;39326;42.650;23.248;2023-08-12T09:38:10;2.97;;;2.72;;
53040;SDS011;39326;42.650;23.248;2023-08-12T09:40:37;2.90;;;2.40;;
53040;SDS011;39326;42.650;23.248;2023-08-12T09:43:03;3.00;;;2.78;;
53040;SDS011;39326;42.650;23.248;2023-08-12T09:45:29;4.05;;;2.75;;
53040;SDS011;39326;42.650;23.248;2023-08-12T09:47:56;3.38;;;2.47;;
53040;SDS011;39326;42.650;23.248;2023-08-12T09:50:22;3.10;;;2.50;;
53040;SDS011;39326;42.650;23.248;2023-08-12T09:52:50;3.25;;;2.92;;
53040;SDS011;39326;42.650;23.248;2023-08-12T09:55:17;3.00;;;2.80;;
53040;SDS011;39326;42.650;23.248;2023-08-12T09:57:44;4.53;;;2.72;;
53040;SDS011;39326;42.650;23.248;2023-08-12T10:00:22;3.17;;;2.97;;
53040;SDS011;39326;42.650;23.248;2023-08-12T10:02:49;3.17;;;2.90;;
53040;SDS011;39326;42.650;23.248;2023-08-12T10:05:23;3.38;;;3.03;;
53040;SDS011;39326;42.650;23.248;2023-08-12T10:07:52;4.75;;;3.03;;
53040;SDS011;39326;42.650;23.248;2023-08-12T10:10:19;4.47;;;2.83;;
53040;SDS011;39326;42.650;23.248;2023-08-12T10:12:46;3.28;;;3.00;;
53040;SDS011;39326;42.650;23.248;2023-08-12T10:15:12;2.90;;;2.60;;
53040;SDS011;39326;42.650;23.248;2023-08-12T10:17:38;2.83;;;2.60;;
53040;SDS011;39326;42.650;23.248;2023-08-12T10:20:06;3.33;;;2.58;;
53040;SDS011;39326;42.650;23.248;2023-08-12T10:22:34;2.75;;;2.55;;
53040;SDS011;39326;42.650;23.248;2023-08-12T10:25:02;3.25;;;2.60;;
53040;SDS011;39326;42.650;23.248;2023-08-12T10:27:29;2.78;;;2.58;;
53040;SDS011;39326;42.650;23.248;2023-08-12T10:29:57;4.00;;;2.35;;
53040;SDS011;39326;42.650;23.248;2023-08-12T10:32:24;2.90;;;2.70;;
53040;SDS011;39326;42.650;23.248;2023-08-12T10:34:58;2.90;;;2.70;;
53040;SDS011;39326;42.650;23.248;2023-08-12T10:37:24;2.97;;;2.65;;
53040;SDS011;39326;42.650;23.248;2023-08-12T10:39:53;2.88;;;2.67;;
53040;SDS011;39326;42.650;23.248;2023-08-12T10:45:08;3.83;;;2.28;;
53040;SDS011;39326;42.650;23.248;2023-08-12T10:47:41;2.78;;;2.58;;
53040;SDS011;39326;42.650;23.248;2023-08-12T10:50:19;2.83;;;2.63;;
53040;SDS011;39326;42.650;23.248;2023-08-12T10:52:46;3.10;;;2.80;;
53040;SDS011;39326;42.650;23.248;2023-08-12T10:55:19;2.58;;;2.38;;
53040;SDS011;39326;42.650;23.248;2023-08-12T10:57:49;2.75;;;2.55;;
53040;SDS011;39326;42.650;23.248;2023-08-12T11:00:19;2.80;;;2.58;;
53040;SDS011;39326;42.650;23.248;2023-08-12T11:02:54;3.33;;;2.60;;
53040;SDS011;39326;42.650;23.248;2023-08-12T11:05:21;2.78;;;2.58;;
53040;SDS011;39326;42.650;23.248;2023-08-12T11:07:56;2.58;;;2.10;;
53040;SDS011;39326;42.650;23.248;2023-08-12T11:10:27;2.58;;;2.38;;
53040;SDS011;39326;42.650;23.248;2023-08-12T11:12:56;3.40;;;2.55;;
53040;SDS011;39326;42.650;23.248;2023-08-12T11:17:54;2.45;;;2.22;;
53040;SDS011;39326;42.650;23.248;2023-08-12T11:20:20;2.15;;;2.05;;
53040;SDS011;39326;42.650;23.248;2023-08-12T11:22:46;2.67;;;2.47;;
53040;SDS011;39326;42.650;23.248;2023-08-12T11:25:13;3.03;;;2.33;;
53040;SDS011;39326;42.650;23.248;2023-08-12T11:27:43;2.55;;;2.17;;
53040;SDS011;39326;42.650;23.248;2023-08-12T11:30:14;5.60;;;2.40;;
53040;SDS011;39326;42.650;23.248;2023-08-12T11:32:42;2.22;;;2.10;;
53040;SDS011;39326;42.650;23.248;2023-08-12T11:35:09;2.55;;;2.35;;
53040;SDS011;39326;42.650;23.248;2023-08-12T11:37:36;2.30;;;2.10;;
53040;SDS011;39326;42.650;23.248;2023-08-12T11:40:06;3.88;;;2.15;;
53040;SDS011;39326;42.650;23.248;2023-08-12T11:42:34;2.53;;;2.33;;
53040;SDS011;39326;42.650;23.248;2023-08-12T11:45:01;2.92;;;2.10;;
53040;SDS011;39326;42.650;23.248;2023-08-12T11:47:27;2.53;;;2.22;;
53040;SDS011;39326;42.650;23.248;2023-08-12T11:49:52;4.22;;;2.05;;
53040;SDS011;39326;42.650;23.248;2023-08-12T11:52:19;3.85;;;2.25;;
53040;SDS011;39326;42.650;23.248;2023-08-12T11:54:45;3.30;;;2.15;;
53040;SDS011;39326;42.650;23.248;2023-08-12T11:57:11;2.22;;;2.00;;
53040;SDS011;39326;42.650;23.248;2023-08-12T11:59:37;3.28;;;2.13;;
53040;SDS011;39326;42.650;23.248;2023-08-12T12:02:03;2.47;;;1.90;;
53040;SDS011;39326;42.650;23.248;2023-08-12T12:04:32;2.78;;;2.50;;
53040;SDS011;39326;42.650;23.248;2023-08-12T12:06:58;2.33;;;2.13;;
53040;SDS011;39326;42.650;23.248;2023-08-12T12:09:25;2.55;;;2.25;;
53040;SDS011;39326;42.650;23.248;2023-08-12T12:11:52;2.83;;;2.15;;
53040;SDS011;39326;42.650;23.248;2023-08-12T12:14:18;2.47;;;2.13;;
53040;SDS011;39326;42.650;23.248;2023-08-12T12:16:46;2.28;;;1.80;;
53040;SDS011;39326;42.650;23.248;2023-08-12T12:19:22;2.13;;;1.80;;
53040;SDS011;39326;42.650;23.248;2023-08-12T12:21:52;3.13;;;1.90;;
53040;SDS011;39326;42.650;23.248;2023-08-12T12:24:18;1.83;;;1.67;;
53040;SDS011;39326;42.650;23.248;2023-08-12T12:26:45;2.03;;;1.63;;
53040;SDS011;39326;42.650;23.248;2023-08-12T12:29:14;2.83;;;1.83;;
53040;SDS011;39326;42.650;23.248;2023-08-12T12:31:40;3.25;;;2.20;;
53040;SDS011;39326;42.650;23.248;2023-08-12T12:34:07;2.10;;;2.00;;
53040;SDS011;39326;42.650;23.248;2023-08-12T12:36:35;2.28;;;2.08;;
53040;SDS011;39326;42.650;23.248;2023-08-12T12:39:02;2.05;;;1.90;;
53040;SDS011;39326;42.650;23.248;2023-08-12T12:41:31;2.50;;;2.05;;
53040;SDS011;39326;42.650;23.248;2023-08-12T12:43:57;7.43;;;2.60;;
53040;SDS011;39326;42.650;23.248;2023-08-12T12:46:24;2.42;;;2.20;;
53040;SDS011;39326;42.650;23.248;2023-08-12T12:48:50;2.35;;;2.05;;
53040;SDS011;39326;42.650;23.248;2023-08-12T12:51:16;2.40;;;2.22;;
53040;SDS011;39326;42.650;23.248;2023-08-12T12:53:41;3.08;;;2.10;;
53040;SDS011;39326;42.650;23.248;2023-08-12T12:56:07;2.28;;;2.10;;
53040;SDS011;39326;42.650;23.248;2023-08-12T12:58:33;2.80;;;2.20;;
53040;SDS011;39326;42.650;23.248;2023-08-12T13:00:59;2.60;;;2.40;;
53040;SDS011;39326;42.650;23.248;2023-08-12T13:03:26;2.20;;;1.98;;
53040;SDS011;39326;42.650;23.248;2023-08-12T13:05:51;2.15;;;2.05;;
53040;SDS011;39326;42.650;23.248;2023-08-12T13:08:17;2.40;;;2.20;;
53040;SDS011;39326;42.650;23.248;2023-08-12T13:10:43;2.05;;;1.95;;
53040;SDS011;39326;42.650;23.248;2023-08-12T13:13:08;2.25;;;2.15;;
53040;SDS011;39326;42.650;23.248;2023-08-12T13:15:34;2.75;;;2.20;;
53040;SDS011;39326;42.650;23.248;2023-08-12T13:18:00;2.25;;;2.05;;
53040;SDS011;39326;42.650;23.248;2023-08-12T13:20:26;2.42;;;2.22;;
53040;SDS011;39326;42.650;23.248;2023-08-12T13:22:51;2.70;;;2.50;;
53040;SDS011;39326;42.650;23.248;2023-08-12T13:25:17;2.35;;;2.15;;
53040;SDS011;39326;42.650;23.248;2023-08-12T13:27:42;2.30;;;2.20;;
53040;SDS011;39326;42.650;23.248;2023-08-12T13:30:08;3.65;;;2.15;;
53040;SDS011;39326;42.650;23.248;2023-08-12T13:32:36;3.63;;;1.90;;
53040;SDS011;39326;42.650;23.248;2023-08-12T13:35:02;6.05;;;2.40;;
53040;SDS011;39326;42.650;23.248;2023-08-12T13:37:28;2.25;;;2.15;;
53040;SDS011;39326;42.650;23.248;2023-08-12T13:39:53;1.95;;;1.85;;
53040;SDS011;39326;42.650;23.248;2023-08-12T13:42:19;2.13;;;1.90;;
53040;SDS011;39326;42.650;23.248;2023-08-12T13:44:45;4.10;;;2.28;;
53040;SDS011;39326;42.650;23.248;2023-08-12T13:47:11;2.13;;;2.03;;
53040;SDS011;39326;42.650;23.248;2023-08-12T13:49:37;3.08;;;1.92;;
53040;SDS011;39326;42.650;23.248;2023-08-12T13:52:03;2.55;;;2.35;;
53040;SDS011;39326;42.650;23.248;2023-08-12T13:54:29;2.10;;;2.00;;
53040;SDS011;39326;42.650;23.248;2023-08-12T13:56:54;2.35;;;1.90;;
53040;SDS011;39326;42.650;23.248;2023-08-12T13:59:20;2.05;;;1.95;;
53040;SDS011;39326;42.650;23.248;2023-08-12T14:01:45;2.13;;;2.03;;
53040;SDS011;39326;42.650;23.248;2023-08-12T14:04:11;2.67;;;1.85;;
53040;SDS011;39326;42.650;23.248;2023-08-12T14:06:36;2.00;;;1.90;;
53040;SDS011;39326;42.650;23.248;2023-08-12T14:09:02;2.28;;;2.05;;
53040;SDS011;39326;42.650;23.248;2023-08-12T14:11:28;3.53;;;1.80;;
53040;SDS011;39326;42.650;23.248;2023-08-12T14:13:53;3.60;;;1.73;;
53040;SDS011;39326;42.650;23.248;2023-08-12T14:16:22;3.63;;;1.98;;
53040;SDS011;39326;42.650;23.248;2023-08-12T14:18:48;2.38;;;2.17;;
53040;SDS011;39326;42.650;23.248;2023-08-12T14:21:14;3.58;;;2.15;;
53040;SDS011;39326;42.650;23.248;2023-08-12T14:23:40;2.72;;;2.08;;
53040;SDS011;39326;42.650;23.248;2023-08-12T14:26:05;2.10;;;1.90;;
53040;SDS011;39326;42.650;23.248;2023-08-12T14:28:31;4.18;;;2.50;;
53040;SDS011;39326;42.650;23.248;2023-08-12T14:30:57;4.63;;;2.22;;
53040;SDS011;39326;42.650;23.248;2023-08-12T14:33:23;2.20;;;2.00;;
53040;SDS011;39326;42.650;23.248;2023-08-12T14:35:50;2.45;;;2.20;;
53040;SDS011;39326;42.650;23.248;2023-08-12T14:38:16;2.67;;;2.25;;